createdAt,value
2018-12-31T01:10:50.527Z,91.10
2018-12-31T01:26:03.526Z,90.30
2018-12-31T01:28:35.522Z,90.40
2018-12-31T01:31:04.330Z,90.50
2018-12-31T12:38:11.557Z,50.00
2018-12-31T12:40:58.644Z,55.10
2018-12-31T12:43:27.134Z,56.80
2018-12-31T12:45:57.345Z,57.00
2018-12-31T12:48:54.447Z,58.00
2018-12-31T12:51:48.304Z,58.40
2018-12-31T12:54:20.607Z,59.80
2018-12-31T12:56:49.127Z,60.30
2018-12-31T12:59:25.465Z,60.90
2018-12-31T13:01:54.365Z,61.40
2018-12-31T13:04:27.438Z,62.40
2018-12-31T13:12:15.193Z,65.40
2018-12-31T13:14:48.471Z,65.60
2018-12-31T13:17:21.370Z,65.90
2018-12-31T13:19:49.766Z,66.30
2018-12-31T13:22:19.098Z,67.10
2018-12-31T13:24:47.472Z,67.80
2018-12-31T13:27:16.034Z,68.10
2018-12-31T13:29:45.242Z,68.10
2018-12-31T13:32:14.882Z,68.30
2018-12-31T13:34:44.942Z,68.60
2018-12-31T13:37:14.905Z,68.90
2018-12-31T13:39:47.365Z,69.80
2018-12-31T13:42:17.010Z,69.80
2018-12-31T13:44:45.483Z,70.10
2018-12-31T13:47:14.389Z,69.50
2018-12-31T13:49:42.900Z,70.10
2018-12-31T13:52:17.187Z,70.50
2018-12-31T13:54:41.499Z,70.70
2018-12-31T13:57:11.787Z,71.20
2018-12-31T13:59:40.403Z,70.90
2018-12-31T14:02:08.843Z,70.30
2018-12-31T14:04:38.163Z,70.20
2018-12-31T14:07:09.294Z,69.90
2018-12-31T14:09:37.940Z,69.60
2018-12-31T14:12:06.362Z,69.70
2018-12-31T14:14:34.865Z,70.00
2018-12-31T14:17:03.252Z,70.30
2018-12-31T14:19:31.779Z,70.20
2018-12-31T14:22:00.307Z,70.20
2018-12-31T14:24:30.721Z,70.90
2018-12-31T14:27:00.712Z,70.60
2018-12-31T14:29:32.689Z,71.30
2018-12-31T14:32:01.293Z,71.60
2018-12-31T14:34:29.918Z,71.80
2018-12-31T14:36:58.613Z,72.20
2018-12-31T14:39:27.171Z,72.10
2018-12-31T14:41:58.912Z,71.80
2018-12-31T14:44:32.156Z,72.10
2018-12-31T14:47:02.353Z,73.00
2018-12-31T14:49:30.909Z,72.20
2018-12-31T14:52:01.950Z,71.90
2018-12-31T14:54:32.823Z,72.00
2018-12-31T14:57:07.842Z,72.00
2018-12-31T14:59:36.627Z,71.80
2018-12-31T15:02:05.257Z,71.70
2018-12-31T15:04:33.789Z,72.00
2018-12-31T15:07:02.463Z,72.50
2018-12-31T15:09:30.875Z,73.00
2018-12-31T15:11:59.449Z,72.70
2018-12-31T15:14:27.888Z,72.60
2018-12-31T15:16:56.320Z,72.70
2018-12-31T15:19:24.823Z,72.90
2018-12-31T15:21:53.879Z,72.80
2018-12-31T15:24:22.332Z,72.50
2018-12-31T15:26:50.981Z,73.10
2018-12-31T15:29:19.520Z,72.40
2018-12-31T15:31:48.236Z,72.70
2018-12-31T15:34:17.240Z,73.00
2018-12-31T15:36:45.629Z,73.40
2018-12-31T15:39:14.144Z,73.60
2018-12-31T15:41:45.221Z,73.50
2018-12-31T15:44:13.660Z,73.20
2018-12-31T15:46:42.729Z,72.80
2018-12-31T15:49:11.187Z,73.20
2018-12-31T15:51:39.741Z,73.70
2018-12-31T15:54:08.113Z,74.60
2018-12-31T15:56:36.623Z,75.10
2018-12-31T15:59:07.744Z,74.10
2018-12-31T16:01:36.392Z,74.10
2018-12-31T16:04:04.948Z,75.40
2018-12-31T16:06:33.418Z,76.10
2018-12-31T16:09:01.801Z,77.60
2018-12-31T16:11:31.517Z,78.00
2018-12-31T16:17:04.761Z,76.40
2018-12-31T16:19:38.321Z,75.90
2018-12-31T16:22:06.968Z,75.80
2018-12-31T16:24:35.566Z,76.10
2018-12-31T16:27:04.179Z,76.20
2018-12-31T16:29:38.266Z,76.40
2018-12-31T16:32:07.008Z,75.40
2018-12-31T16:34:35.487Z,74.90
2018-12-31T16:37:04.218Z,74.40
2018-12-31T16:39:32.668Z,74.30
2018-12-31T16:42:01.120Z,73.90
2018-12-31T16:44:29.747Z,74.30
2018-12-31T16:46:58.244Z,74.60
2018-12-31T16:49:26.797Z,75.90
2018-12-31T16:52:02.502Z,75.70
2018-12-31T16:54:25.677Z,75.90
2018-12-31T16:56:54.066Z,76.30
2018-12-31T16:59:22.781Z,77.10
2018-12-31T17:01:53.432Z,77.50
2018-12-31T17:04:22.531Z,77.10
2018-12-31T17:06:51.139Z,77.40
2018-12-31T17:09:19.598Z,76.90
2018-12-31T17:11:48.095Z,76.90
2018-12-31T17:14:16.567Z,77.20
2018-12-31T17:16:45.195Z,77.30
2018-12-31T17:19:15.428Z,76.90
2018-12-31T17:21:44.464Z,75.80
2018-12-31T17:24:15.873Z,75.70
2018-12-31T17:26:48.990Z,76.00
2018-12-31T17:29:24.236Z,76.90
2018-12-31T17:31:53.072Z,76.60
2018-12-31T17:34:25.755Z,75.90
2018-12-31T17:36:54.422Z,76.00
2018-12-31T17:39:23.386Z,75.90
2018-12-31T17:41:52.086Z,76.50
2018-12-31T17:44:20.780Z,76.80
2018-12-31T17:46:52.406Z,76.70
2018-12-31T17:49:22.547Z,77.20
2018-12-31T17:51:58.112Z,77.20
2018-12-31T17:54:27.112Z,76.40
2018-12-31T17:56:58.404Z,76.40
2018-12-31T17:59:35.272Z,76.60
2018-12-31T18:02:10.779Z,76.30
2018-12-31T18:04:38.690Z,76.40
2018-12-31T18:07:07.471Z,76.50
2018-12-31T18:09:40.665Z,76.20
2018-12-31T18:12:11.490Z,76.60
2018-12-31T18:14:43.069Z,77.30
2018-12-31T18:17:13.221Z,77.70
2018-12-31T18:19:46.383Z,77.70
2018-12-31T18:22:24.003Z,78.20
2018-12-31T18:24:57.308Z,78.10
2018-12-31T18:27:25.980Z,78.40
2018-12-31T18:29:56.998Z,79.00
2018-12-31T18:32:45.761Z,79.20
2018-12-31T18:38:31.300Z,79.20
2018-12-31T18:41:03.506Z,78.90
2018-12-31T18:50:30.534Z,79.20
2018-12-31T19:16:21.700Z,79.60
2018-12-31T19:18:55.214Z,79.40
2018-12-31T19:21:47.539Z,78.60
2018-12-31T19:24:17.951Z,78.10
2018-12-31T19:26:54.258Z,77.90
2018-12-31T19:35:07.068Z,78.00
2018-12-31T19:37:37.612Z,78.30
2018-12-31T19:40:10.021Z,78.20
2018-12-31T19:42:44.347Z,78.40
2018-12-31T19:45:12.963Z,78.20
2018-12-31T19:47:42.981Z,78.10
2018-12-31T19:50:21.936Z,78.70
2018-12-31T19:52:50.547Z,78.60
2018-12-31T19:55:19.072Z,78.60
2018-12-31T19:57:47.898Z,78.70
2018-12-31T20:00:16.438Z,79.00
2018-12-31T20:02:45.256Z,79.80
2018-12-31T20:05:13.798Z,79.70
2018-12-31T20:07:42.354Z,79.40
2018-12-31T20:10:15.830Z,79.50
2018-12-31T20:12:47.008Z,79.30
2018-12-31T20:15:16.720Z,79.40
2018-12-31T20:17:45.283Z,79.60
2018-12-31T20:20:14.108Z,80.50
2018-12-31T20:22:43.041Z,80.60
2018-12-31T20:25:11.584Z,80.70
2018-12-31T20:27:40.339Z,81.50
2018-12-31T20:30:11.966Z,80.90
2018-12-31T20:32:40.429Z,81.70
2018-12-31T20:35:08.942Z,81.80
2018-12-31T20:37:37.471Z,81.70
2018-12-31T20:40:06.696Z,82.20
2018-12-31T20:42:35.407Z,82.20
2018-12-31T20:45:04.929Z,82.10
2018-12-31T20:47:33.491Z,82.20
2018-12-31T20:50:03.421Z,82.30
2018-12-31T20:52:31.893Z,82.60
2018-12-31T20:55:00.510Z,83.20
2018-12-31T20:57:29.940Z,83.40
2018-12-31T20:59:58.931Z,83.40
2018-12-31T21:02:27.966Z,83.60
2018-12-31T21:04:56.335Z,83.50
2018-12-31T21:07:24.854Z,83.10
2018-12-31T21:09:53.710Z,83.50
2018-12-31T21:12:23.410Z,83.50
2018-12-31T21:14:51.790Z,83.30
2018-12-31T21:17:20.410Z,83.10
2018-12-31T21:19:48.870Z,83.50
2018-12-31T21:22:17.422Z,83.40
2018-12-31T21:24:45.867Z,84.20
2018-12-31T21:27:14.263Z,84.60
2018-12-31T21:29:45.206Z,84.70
2018-12-31T21:32:19.748Z,84.90
2018-12-31T21:34:47.054Z,85.20
2018-12-31T21:37:15.446Z,85.10
2018-12-31T21:39:43.995Z,85.40
2018-12-31T21:42:12.745Z,85.40
2018-12-31T21:44:41.370Z,85.50
2018-12-31T21:47:09.827Z,86.00
2018-12-31T21:49:38.474Z,85.90
2018-12-31T21:52:06.865Z,85.60
2018-12-31T21:54:35.319Z,85.40
2018-12-31T21:57:03.756Z,85.10
2018-12-31T21:59:32.515Z,85.30
2018-12-31T22:02:00.927Z,85.30
2018-12-31T22:04:29.350Z,84.70
2018-12-31T22:06:57.834Z,85.30
2018-12-31T22:09:26.627Z,85.10
2018-12-31T22:11:54.977Z,85.60
2018-12-31T22:14:23.467Z,85.70
2018-12-31T22:16:51.868Z,85.40
2018-12-31T22:19:20.501Z,85.50
2018-12-31T22:21:50.246Z,85.30
2018-12-31T22:24:21.478Z,85.70
2018-12-31T22:26:51.650Z,86.20
2018-12-31T22:29:21.846Z,85.80
2018-12-31T22:31:50.255Z,86.40
2018-12-31T22:34:18.877Z,86.60
2018-12-31T22:36:47.269Z,87.00
2018-12-31T22:39:17.717Z,87.60
2018-12-31T22:41:46.124Z,87.50
2018-12-31T22:44:22.547Z,87.60
2018-12-31T22:46:54.163Z,87.70
2018-12-31T22:49:24.316Z,87.80
2018-12-31T22:51:56.626Z,87.40
2018-12-31T22:54:25.005Z,87.30
2018-12-31T22:56:53.775Z,87.70
2018-12-31T22:59:23.711Z,88.40
2018-12-31T23:01:52.265Z,88.70
2018-12-31T23:04:20.799Z,88.00
2018-12-31T23:06:49.876Z,87.20
2018-12-31T23:09:18.285Z,87.60
2018-12-31T23:11:46.817Z,87.70
2018-12-31T23:14:21.778Z,87.80
2018-12-31T23:16:50.879Z,88.30
2018-12-31T23:19:19.295Z,88.10
2018-12-31T23:21:48.066Z,87.60
2018-12-31T23:24:16.509Z,87.60
2018-12-31T23:26:46.750Z,86.90
2018-12-31T23:29:15.520Z,86.50
2018-12-31T23:31:45.082Z,86.40
2018-12-31T23:34:13.528Z,86.40
2018-12-31T23:36:41.938Z,85.70
2018-12-31T23:39:10.356Z,85.60
2018-12-31T23:41:40.434Z,86.20
2018-12-31T23:44:09.204Z,85.50
2018-12-31T23:46:37.669Z,84.90
2018-12-31T23:49:06.110Z,84.10
2018-12-31T23:51:43.702Z,83.80
2018-12-31T23:57:04.175Z,83.50
2018-12-31T23:59:38.430Z,82.50
